Time;durP1;ratioP1;P1;durP2;ratioP2;P2;SDS_P1;SDS_P2;PMS_P1;PMS_P2;Temp;Humidity;BMP_temperature;BMP_pressure;BME280_temperature;BME280_humidity;BME280_pressure;Samples;Min_cycle;Max_cycle;Signal;HPM_P1;HPM_P2
2022/09/09 00:01:31;;;;;;;0.77;0.73;;;;;;;20.15;100.00;95642.22;5113065;28;20450;-55
2022/09/09 00:04:06;;;;;;;0.40;0.23;;;;;;;19.96;100.00;95650.66;5112604;28;20446;-54
2022/09/09 00:06:45;;;;;;;1.17;0.50;;;;;;;20.09;100.00;95652.38;5112580;28;20430;-54
2022/09/09 00:09:18;;;;;;;0.40;0.30;;;;;;;20.10;100.00;95618.97;5112579;28;20427;-54
2022/09/09 00:11:52;;;;;;;0.90;0.70;;;;;;;20.02;100.00;95643.22;5112597;28;20436;-54
2022/09/09 00:14:30;;;;;;;0.53;0.50;;;;;;;20.01;100.00;95636.25;5112447;28;20477;-55
2022/09/09 00:17:03;;;;;;;0.50;0.30;;;;;;;20.17;100.00;95632.72;5112149;28;20423;-54
2022/09/09 00:19:39;;;;;;;0.70;0.63;;;;;;;20.31;100.00;95637.13;5112439;28;20431;-54
2022/09/09 00:22:17;;;;;;;0.60;0.40;;;;;;;20.41;100.00;95651.03;5112751;28;20439;-54
2022/09/09 00:24:50;;;;;;;0.50;0.30;;;;;;;20.37;100.00;95649.28;5112349;28;20427;-54
2022/09/09 00:27:28;;;;;;;0.57;0.40;;;;;;;20.29;100.00;95644.75;5112677;28;20481;-54
2022/09/09 00:30:02;;;;;;;0.50;0.50;;;;;;;20.20;100.00;95647.44;5112520;28;20424;-55
2022/09/09 00:32:35;;;;;;;0.50;0.40;;;;;;;20.07;100.00;95626.88;5112500;28;20427;-55
2022/09/09 00:35:17;;;;;;;0.50;0.40;;;;;;;20.11;100.00;95634.00;5112148;28;20485;-55
2022/09/09 00:37:49;;;;;;;1.20;0.83;;;;;;;19.59;100.00;95636.00;5112219;28;20439;-55
2022/09/09 00:40:33;;;;;;;0.90;0.80;;;;;;;19.85;100.00;95646.72;5112278;28;20428;-55
2022/09/09 00:43:20;;;;;;;0.60;0.40;;;;;;;19.69;100.00;95642.94;5112432;28;20446;-55
2022/09/09 00:46:29;;;;;;;0.60;0.60;;;;;;;19.57;100.00;95642.81;5112105;28;20426;-55
2022/09/09 00:49:05;;;;;;;4.57;1.97;;;;;;;19.89;100.00;95652.25;5112056;28;20956;-55
2022/09/09 00:51:46;;;;;;;0.50;0.30;;;;;;;20.05;100.00;95654.13;5112372;28;20842;-55
2022/09/09 00:54:39;;;;;;;3.53;0.40;;;;;;;19.72;100.00;95650.41;5111939;28;20833;-54
2022/09/09 00:57:27;;;;;;;0.40;0.30;;;;;;;19.95;100.00;95653.69;5111831;28;20463;-55
2022/09/09 01:00:17;;;;;;;0.73;0.60;;;;;;;19.94;100.00;95654.78;5112031;28;20442;-54
2022/09/09 01:02:57;;;;;;;0.50;0.30;;;;;;;19.80;100.00;95649.59;5112323;28;20466;-54
2022/09/09 01:05:36;;;;;;;0.80;0.53;;;;;;;19.89;100.00;95646.88;5111954;28;20484;-54
2022/09/09 01:08:16;;;;;;;1.47;1.37;;;;;;;19.34;100.00;95631.41;5111888;28;20924;-54
2022/09/09 01:10:53;;;;;;;0.60;0.60;;;;;;;19.29;100.00;95652.28;5112210;28;20443;-54
2022/09/09 01:13:25;;;;;;;0.97;0.70;;;;;;;18.99;100.00;95592.19;5112134;28;20545;-54
2022/09/09 01:15:55;;;;;;;0.50;0.40;;;;;;;19.45;100.00;95661.50;5111823;28;20805;-54
2022/09/09 01:18:34;;;;;;;1.17;1.07;;;;;;;19.20;100.00;95603.13;5111822;28;20808;-55
2022/09/09 01:21:10;;;;;;;0.87;0.87;;;;;;;19.50;100.00;95655.94;5112075;28;20428;-54
2022/09/09 01:24:02;;;;;;;2.60;0.40;;;;;;;19.68;100.00;95657.53;5111783;28;20440;-54
2022/09/09 01:26:35;;;;;;;0.60;0.60;;;;;;;19.69;100.00;95640.25;5111984;28;20829;-55
2022/09/09 01:29:04;;;;;;;0.50;0.40;;;;;;;19.57;100.00;95653.56;5113500;28;20435;-54
2022/09/09 01:31:36;;;;;;;0.70;0.40;;;;;;;19.33;100.00;95659.38;5116270;28;20435;-54
2022/09/09 01:34:11;;;;;;;0.80;0.80;;;;;;;19.54;100.00;95656.88;5115901;28;20458;-55
2022/09/09 01:36:46;;;;;;;0.40;0.40;;;;;;;19.70;100.00;95641.06;5115903;28;20418;-55
2022/09/09 01:39:15;;;;;;;0.93;0.40;;;;;;;19.78;100.00;95641.06;5115677;28;20427;-55
2022/09/09 01:41:45;;;;;;;0.73;0.73;;;;;;;19.61;100.00;95628.41;5115516;28;20428;-55
2022/09/09 01:44:13;;;;;;;0.60;0.60;;;;;;;19.77;100.00;95635.97;5115559;28;20419;-55
2022/09/09 01:46:42;;;;;;;0.50;0.40;;;;;;;19.74;100.00;95647.38;5115990;28;20848;-55
2022/09/09 01:49:11;;;;;;;0.50;0.30;;;;;;;19.63;100.00;95641.56;5115338;28;20431;-55
2022/09/09 01:51:42;;;;;;;1.33;0.70;;;;;;;19.68;100.00;95649.47;5115603;28;20434;-54
2022/09/09 01:54:11;;;;;;;0.60;0.53;;;;;;;19.58;100.00;95650.56;5115439;28;20467;-54
2022/09/09 01:56:52;;;;;;;0.50;0.33;;;;;;;19.39;100.00;95565.97;5115226;27;20471;-55
2022/09/09 01:59:32;;;;;;;0.50;0.30;;;;;;;19.81;100.00;95637.72;5115179;28;20427;-55
2022/09/09 02:02:11;;;;;;;0.90;0.60;;;;;;;19.75;100.00;95640.91;5115149;28;20832;-55
2022/09/09 02:04:42;;;;;;;0.63;0.63;;;;;;;19.64;100.00;95635.06;5114987;28;20427;-55
2022/09/09 02:07:23;;;;;;;3.80;0.90;;;;;;;19.16;100.00;95572.59;5115123;28;20924;-55
2022/09/09 02:10:00;;;;;;;0.70;0.43;;;;;;;19.57;100.00;95645.50;5115180;27;20932;-55
2022/09/09 02:12:31;;;;;;;0.60;0.40;;;;;;;19.44;100.00;95638.38;5115235;28;20411;-56
2022/09/09 02:15:06;;;;;;;0.53;0.53;;;;;;;19.31;100.00;95639.31;5114734;28;20467;-56
2022/09/09 02:17:39;;;;;;;3.33;0.50;;;;;;;19.45;100.00;95638.09;5114661;28;20429;-56
2022/09/09 02:20:11;;;;;;;0.50;0.40;;;;;;;18.71;100.00;95648.09;5114769;28;20491;-55
2022/09/09 02:22:43;;;;;;;1.33;1.23;;;;;;;18.56;100.00;95645.81;5114653;28;20427;-56
2022/09/09 02:25:16;;;;;;;0.50;0.50;;;;;;;19.10;100.00;95651.78;5114908;28;20431;-56
2022/09/09 02:27:48;;;;;;;0.60;0.60;;;;;;;18.89;100.00;95649.72;5114884;28;20458;-56
2022/09/09 02:30:17;;;;;;;0.53;0.53;;;;;;;18.61;100.00;95648.38;5115105;28;20435;-55
2022/09/09 02:32:47;;;;;;;1.80;1.80;;;;;;;18.87;100.00;95651.88;5114465;28;20821;-55
2022/09/09 02:35:20;;;;;;;0.50;0.40;;;;;;;18.91;100.00;95636.75;5115051;28;20478;-56
2022/09/09 02:37:50;;;;;;;0.50;0.37;;;;;;;19.06;100.00;95654.31;5114418;28;20435;-56
2022/09/09 02:40:18;;;;;;;0.50;0.50;;;;;;;18.60;100.00;95645.97;5113797;28;20427;-56
2022/09/09 02:42:49;;;;;;;0.53;0.53;;;;;;;18.42;100.00;95655.84;5114133;28;20431;-56
2022/09/09 02:45:20;;;;;;;0.77;0.77;;;;;;;18.66;100.00;95656.28;5114242;28;20916;-55
2022/09/09 02:47:54;;;;;;;0.50;0.40;;;;;;;19.00;100.00;95650.19;5113995;28;20427;-55
2022/09/09 02:50:30;;;;;;;0.40;0.30;;;;;;;19.24;100.00;95642.47;5113856;28;20427;-55
2022/09/09 02:53:11;;;;;;;0.57;0.57;;;;;;;18.61;100.00;95648.38;5113819;28;20432;-55
2022/09/09 02:55:43;;;;;;;1.43;0.60;;;;;;;18.75;100.00;95646.34;5113552;28;20459;-55
2022/09/09 02:58:16;;;;;;;0.97;0.97;;;;;;;18.77;100.00;95630.69;5113674;28;20428;-55
2022/09/09 03:00:46;;;;;;;0.50;0.40;;;;;;;18.90;100.00;95637.84;5113526;28;20459;-55
2022/09/09 03:03:17;;;;;;;13.63;0.83;;;;;;;18.95;100.00;95635.00;5114017;28;20430;-55
2022/09/09 03:05:46;;;;;;;0.70;0.30;;;;;;;18.64;100.00;95580.63;5113490;28;20419;-55
2022/09/09 03:08:15;;;;;;;1.53;0.40;;;;;;;19.14;100.00;95644.69;5113611;28;20423;-55
2022/09/09 03:10:43;;;;;;;0.67;0.67;;;;;;;19.26;100.00;95648.31;5113383;28;20435;-55
2022/09/09 03:13:15;;;;;;;6.63;0.70;;;;;;;19.18;100.00;95637.56;5113594;28;20434;-56
2022/09/09 03:15:43;;;;;;;0.90;0.70;;;;;;;19.25;100.00;95645.97;5113516;28;20910;-55
2022/09/09 03:18:11;;;;;;;0.53;0.40;;;;;;;19.32;100.00;95635.53;5113346;28;20434;-55
2022/09/09 03:20:42;;;;;;;0.50;0.30;;;;;;;19.16;100.00;95620.97;5113653;28;20893;-55
2022/09/09 03:23:13;;;;;;;0.50;0.47;;;;;;;19.17;100.00;95628.72;5113611;28;20453;-55
2022/09/09 03:25:48;;;;;;;0.77;0.63;;;;;;;19.02;100.00;95638.00;5113472;28;20908;-55
2022/09/09 03:28:17;;;;;;;0.50;0.40;;;;;;;19.21;100.00;95647.69;5113479;28;20419;-55
2022/09/09 03:30:46;;;;;;;0.57;0.53;;;;;;;19.24;100.00;95641.69;5113442;28;20407;-56
2022/09/09 03:33:14;;;;;;;0.70;0.60;;;;;;;19.17;100.00;95646.72;5113071;28;20431;-56
2022/09/09 03:35:48;;;;;;;0.67;0.60;;;;;;;19.20;100.00;95632.69;5113177;28;20480;-56
2022/09/09 03:38:16;;;;;;;0.50;0.37;;;;;;;19.20;100.00;95632.69;5112943;28;21019;-56
2022/09/09 03:40:51;;;;;;;1.17;0.47;;;;;;;19.14;100.00;95636.63;5113494;28;20420;-55
2022/09/09 03:43:21;;;;;;;0.70;0.60;;;;;;;19.17;100.00;95641.38;5112966;28;20420;-56
2022/09/09 03:45:49;;;;;;;0.60;0.60;;;;;;;19.02;100.00;95632.63;5112836;28;20944;-56
2022/09/09 03:48:18;;;;;;;2.20;1.17;;;;;;;19.03;100.00;95636.91;5112871;28;20477;-56
2022/09/09 03:50:47;;;;;;;0.63;0.63;;;;;;;19.16;100.00;95639.78;5112585;28;20434;-56
2022/09/09 03:53:16;;;;;;;1.07;0.30;;;;;;;19.12;100.00;95636.16;5112982;28;20427;-56
2022/09/09 03:55:45;;;;;;;1.10;0.90;;;;;;;18.47;100.00;95628.88;5112600;28;20484;-56
2022/09/09 03:58:14;;;;;;;0.40;0.30;;;;;;;18.62;100.00;95649.16;5113164;28;20446;-56
2022/09/09 04:00:44;;;;;;;0.67;0.60;;;;;;;18.73;100.00;95643.19;5112756;28;20778;-55
2022/09/09 04:03:13;;;;;;;1.67;0.70;;;;;;;19.05;100.00;95641.97;5112521;28;20423;-56
2022/09/09 04:05:42;;;;;;;0.50;0.30;;;;;;;19.02;100.00;95642.63;5112745;28;20428;-56
2022/09/09 04:08:11;;;;;;;0.70;0.70;;;;;;;18.97;100.00;95640.84;5112717;28;20423;-56
2022/09/09 04:10:39;;;;;;;0.60;0.40;;;;;;;18.96;100.00;95651.91;5112620;28;20428;-55
2022/09/09 04:13:07;;;;;;;0.93;0.50;;;;;;;18.98;100.00;95650.50;5112346;28;20427;-55
2022/09/09 04:15:36;;;;;;;0.60;0.50;;;;;;;19.13;100.00;95643.06;5112213;28;20475;-55
2022/09/09 04:18:06;;;;;;;0.80;0.50;;;;;;;18.95;100.00;95648.44;5112519;28;20494;-60
2022/09/09 04:20:35;;;;;;;0.70;0.50;;;;;;;19.25;100.00;95657.47;5112485;28;20470;-60
2022/09/09 04:23:03;;;;;;;0.77;0.77;;;;;;;18.75;100.00;95659.78;5112182;28;20416;-60
2022/09/09 04:25:32;;;;;;;0.67;0.50;;;;;;;18.92;100.00;95657.13;5112366;28;20428;-60
2022/09/09 04:28:00;;;;;;;0.60;0.60;;;;;;;19.01;100.00;95657.94;5112484;28;20434;-59
2022/09/09 04:30:28;;;;;;;0.57;0.57;;;;;;;18.62;100.00;95658.00;5112236;28;20435;-59
2022/09/09 04:32:58;;;;;;;0.67;0.60;;;;;;;18.91;100.00;95660.94;5112128;28;20430;-60
2022/09/09 04:35:28;;;;;;;1.93;1.57;;;;;;;18.82;100.00;95662.78;5112334;28;20474;-59
2022/09/09 04:37:56;;;;;;;0.60;0.57;;;;;;;18.94;100.00;95660.31;5112403;28;20802;-60
2022/09/09 04:40:24;;;;;;;0.83;0.83;;;;;;;19.15;100.00;95668.53;5111994;28;20427;-59
2022/09/09 04:42:52;;;;;;;1.30;1.20;;;;;;;19.07;100.00;95660.47;5112338;28;20422;-60
2022/09/09 04:45:21;;;;;;;1.00;0.87;;;;;;;19.14;100.00;95661.59;5111994;28;20420;-61
2022/09/09 04:47:49;;;;;;;0.80;0.80;;;;;;;19.08;100.00;95667.41;5111921;28;20929;-60
2022/09/09 04:50:18;;;;;;;0.70;0.70;;;;;;;18.86;100.00;95674.50;5112004;28;20426;-60
2022/09/09 04:52:48;;;;;;;5.83;0.43;;;;;;;18.82;100.00;95680.81;5112125;28;20450;-60
2022/09/09 04:55:16;;;;;;;0.60;0.57;;;;;;;19.31;100.00;95669.66;5112246;28;20415;-60
2022/09/09 04:57:45;;;;;;;0.50;0.30;;;;;;;19.62;100.00;95666.84;5111670;28;20467;-59
2022/09/09 05:00:14;;;;;;;0.57;0.57;;;;;;;19.70;100.00;95662.56;5112220;28;20451;-59
2022/09/09 05:02:43;;;;;;;0.80;0.60;;;;;;;19.76;100.00;95662.09;5113214;27;20500;-59
2022/09/09 05:05:11;;;;;;;0.93;0.93;;;;;;;19.35;100.00;95665.25;5116111;28;20459;-59
2022/09/09 05:07:40;;;;;;;1.00;0.90;;;;;;;19.35;100.00;95664.47;5116356;28;20415;-59
2022/09/09 05:10:10;;;;;;;1.20;1.13;;;;;;;19.15;100.00;95646.28;5115893;28;20971;-59
2022/09/09 05:12:38;;;;;;;0.60;0.50;;;;;;;18.99;100.00;95652.09;5116079;28;20813;-59
2022/09/09 05:15:08;;;;;;;0.77;0.77;;;;;;;19.12;100.00;95647.69;5115968;28;20423;-59
2022/09/09 05:17:36;;;;;;;1.00;0.90;;;;;;;18.90;100.00;95650.47;5115956;28;20430;-59
2022/09/09 05:20:05;;;;;;;0.70;0.70;;;;;;;18.41;100.00;95579.13;5116111;28;20434;-62
2022/09/09 05:22:38;;;;;;;0.70;0.70;;;;;;;18.73;100.00;95655.81;5115982;28;20911;-59
2022/09/09 05:25:07;;;;;;;1.40;1.30;;;;;;;18.29;100.00;95662.13;5116016;28;20430;-59
2022/09/09 05:27:37;;;;;;;0.73;0.73;;;;;;;18.22;100.00;95661.75;5116124;27;20435;-58
2022/09/09 05:30:06;;;;;;;0.70;0.70;;;;;;;18.19;100.00;95665.06;5115553;28;20419;-58
2022/09/09 05:32:34;;;;;;;0.80;0.80;;;;;;;18.10;100.00;95648.13;5115358;28;20438;-58
2022/09/09 05:35:03;;;;;;;1.20;1.13;;;;;;;18.38;100.00;95657.56;5115858;28;20446;-58
2022/09/09 05:37:32;;;;;;;2.00;0.60;;;;;;;17.99;100.00;95678.97;5115596;28;20482;-58
2022/09/09 05:40:00;;;;;;;0.50;0.30;;;;;;;18.11;100.00;95673.84;5115763;28;20416;-59
2022/09/09 05:42:32;;;;;;;0.93;0.70;;;;;;;18.17;100.00;95667.25;5115342;28;21153;-59
2022/09/09 05:45:02;;;;;;;1.20;1.10;;;;;;;18.30;100.00;95669.84;5115392;28;20422;-59
2022/09/09 05:47:30;;;;;;;2.80;1.17;;;;;;;18.52;100.00;95666.31;5115306;28;20427;-59
2022/09/09 05:49:58;;;;;;;0.63;0.60;;;;;;;18.76;100.00;95674.78;5115337;28;20430;-58
2022/09/09 05:52:27;;;;;;;1.30;1.20;;;;;;;18.78;100.00;95666.41;5115427;28;20423;-58
2022/09/09 05:54:56;;;;;;;1.50;1.40;;;;;;;19.02;100.00;95670.25;5115457;28;20416;-58
2022/09/09 05:57:25;;;;;;;1.63;0.93;;;;;;;19.71;100.00;95670.31;5115040;28;20556;-57
2022/09/09 05:59:53;;;;;;;1.50;1.03;;;;;;;19.24;100.00;95663.97;5115328;28;20423;-56
2022/09/09 06:02:23;;;;;;;1.77;1.67;;;;;;;19.35;100.00;95651.03;5114964;28;20428;-56
2022/09/09 06:04:51;;;;;;;1.03;1.03;;;;;;;19.25;100.00;95586.84;5115193;28;20451;-56
2022/09/09 06:07:20;;;;;;;1.27;0.70;;;;;;;20.40;100.00;95632.50;5114866;27;20438;-56
2022/09/09 06:09:48;;;;;;;0.90;0.90;;;;;;;20.18;100.00;95534.72;5115101;28;20420;-56
2022/09/09 06:12:16;;;;;;;0.70;0.70;;;;;;;21.20;100.00;95634.16;5115102;28;20930;-55
2022/09/09 06:14:45;;;;;;;1.43;1.33;;;;;;;21.43;100.00;95628.06;5113796;28;20484;-55
2022/09/09 06:17:13;;;;;;;0.50;0.50;;;;;;;21.96;100.00;95621.13;5114409;28;20473;-54
2022/09/09 06:19:43;;;;;;;0.80;0.80;;;;;;;22.10;100.00;95630.50;5114810;27;20435;-55
2022/09/09 06:22:12;;;;;;;1.00;1.00;;;;;;;22.31;100.00;95633.13;5114864;28;20796;-53
2022/09/09 06:24:40;;;;;;;0.60;0.60;;;;;;;21.89;100.00;95645.16;5114304;28;20442;-53
2022/09/09 06:27:09;;;;;;;1.03;1.03;;;;;;;22.08;100.00;95640.84;5114271;28;20435;-53
2022/09/09 06:29:37;;;;;;;1.07;1.07;;;;;;;21.60;100.00;95643.34;5114825;28;20420;-54
2022/09/09 06:32:08;;;;;;;1.60;1.37;;;;;;;22.24;100.00;95638.25;5114346;28;20480;-54
2022/09/09 06:34:36;;;;;;;0.97;0.70;;;;;;;23.39;100.00;95647.75;5114295;28;20423;-54
2022/09/09 06:37:06;;;;;;;0.93;0.57;;;;;;;24.05;100.00;95639.94;5114300;28;20474;-54
2022/09/09 06:39:34;;;;;;;0.73;0.60;;;;;;;24.11;100.00;95645.91;5114319;28;20434;-54
2022/09/09 06:42:03;;;;;;;0.50;0.40;;;;;;;24.63;100.00;95638.34;5114492;28;20833;-54
2022/09/09 06:44:33;;;;;;;0.50;0.40;;;;;;;24.38;100.00;95639.66;5114582;28;20428;-54
2022/09/09 06:47:03;;;;;;;0.50;0.43;;;;;;;24.58;100.00;95644.81;5114610;28;20424;-54
2022/09/09 06:49:31;;;;;;;0.40;0.30;;;;;;;25.44;93.23;95634.00;5114174;28;20431;-54
2022/09/09 06:51:59;;;;;;;1.07;0.97;;;;;;;25.19;95.43;95641.63;5114689;27;20419;-54
2022/09/09 06:54:29;;;;;;;1.50;1.40;;;;;;;24.80;97.06;95638.00;5114198;28;20431;-55
2022/09/09 06:56:58;;;;;;;0.63;0.63;;;;;;;25.19;100.00;95636.19;5113960;28;20483;-55
2022/09/09 06:59:31;;;;;;;1.23;1.13;;;;;;;25.03;98.24;95627.31;5114357;28;20430;-55
2022/09/09 07:02:01;;;;;;;0.60;0.57;;;;;;;25.27;90.00;95629.78;5113986;28;20457;-55
2022/09/09 07:04:29;;;;;;;0.90;0.80;;;;;;;25.50;92.27;95629.91;5114021;28;20427;-55
2022/09/09 07:06:58;;;;;;;1.00;0.80;;;;;;;26.16;87.13;95635.88;5114136;28;20442;-55
2022/09/09 07:09:27;;;;;;;7.83;1.23;;;;;;;26.95;79.55;95617.81;5114180;28;20439;-55
2022/09/09 07:11:58;;;;;;;0.80;0.80;;;;;;;25.99;82.48;95620.03;5113701;28;20423;-55
2022/09/09 07:14:26;;;;;;;1.57;1.47;;;;;;;25.88;84.01;95619.06;5113575;28;20804;-55
2022/09/09 07:16:55;;;;;;;2.00;1.90;;;;;;;26.15;86.57;95623.47;5113513;28;21000;-55
2022/09/09 07:19:27;;;;;;;0.87;0.87;;;;;;;26.86;79.58;95628.19;5113477;28;20478;-56
2022/09/09 07:21:55;;;;;;;0.87;0.87;;;;;;;27.88;70.67;95617.88;5113560;28;20424;-55
2022/09/09 07:24:23;;;;;;;0.90;0.90;;;;;;;28.07;69.74;95617.75;5113400;28;20854;-57
2022/09/09 07:26:51;;;;;;;1.47;0.87;;;;;;;28.18;66.05;95623.31;5112208;27;20426;-55
2022/09/09 07:29:21;;;;;;;1.20;1.03;;;;;;;27.86;66.75;95622.16;5113770;28;20429;-55
2022/09/09 07:31:50;;;;;;;0.70;0.70;;;;;;;28.44;65.47;95619.69;5113415;28;20417;-55
2022/09/09 07:34:18;;;;;;;0.63;0.63;;;;;;;28.52;62.59;95627.53;5113541;28;20421;-54
2022/09/09 07:36:47;;;;;;;1.10;0.93;;;;;;;27.90;65.60;95628.44;5113129;28;20474;-55
2022/09/09 07:39:17;;;;;;;0.87;0.87;;;;;;;27.46;70.84;95617.38;5113119;28;20424;-55
2022/09/09 07:41:47;;;;;;;0.97;0.50;;;;;;;28.72;62.88;95619.94;5113133;28;20959;-54
2022/09/09 07:44:18;;;;;;;1.40;1.30;;;;;;;28.34;61.65;95624.66;5113456;28;20427;-55
2022/09/09 07:46:47;;;;;;;1.27;1.17;;;;;;;27.83;64.69;95620.19;5112967;28;20431;-55
2022/09/09 07:49:17;;;;;;;1.00;1.00;;;;;;;27.79;63.15;95617.41;5112962;28;20762;-55
2022/09/09 07:51:53;;;;;;;0.97;0.90;;;;;;;28.67;64.73;95607.44;5113317;28;20509;-57
2022/09/09 07:54:23;;;;;;;2.20;1.13;;;;;;;28.25;57.84;95555.25;5113002;28;20429;-61
2022/09/09 07:56:53;;;;;;;2.20;1.20;;;;;;;29.50;59.72;95616.56;5112481;28;21000;-60
2022/09/09 07:59:21;;;;;;;0.80;0.80;;;;;;;30.16;53.76;95619.97;5112826;28;20426;-60
2022/09/09 08:01:54;;;;;;;1.23;1.23;;;;;;;29.70;55.38;95608.88;5112695;27;20439;-60
2022/09/09 08:04:25;;;;;;;1.00;1.00;;;;;;;29.95;51.91;95612.50;5112809;28;20500;-56
2022/09/09 08:06:55;;;;;;;0.60;0.47;;;;;;;30.59;53.61;95594.25;5112502;28;20431;-56
2022/09/09 08:09:26;;;;;;;0.70;0.70;;;;;;;30.69;49.22;95527.81;5112533;28;20435;-56
2022/09/09 08:11:56;;;;;;;2.63;0.80;;;;;;;30.34;50.39;95598.09;5112754;28;20748;-56
2022/09/09 08:14:24;;;;;;;0.73;0.73;;;;;;;30.28;47.38;95553.97;5112444;28;20944;-56
2022/09/09 08:16:54;;;;;;;0.97;0.97;;;;;;;32.05;46.33;95584.56;5112164;28;20444;-56
2022/09/09 08:19:23;;;;;;;1.57;0.60;;;;;;;32.04;44.04;95593.97;5112596;27;20434;-55
2022/09/09 08:21:51;;;;;;;0.50;0.40;;;;;;;32.68;42.32;95588.06;5112391;28;20510;-54
2022/09/09 08:24:20;;;;;;;1.17;0.60;;;;;;;31.53;44.05;95591.03;5112365;28;20429;-55
2022/09/09 08:26:49;;;;;;;1.63;1.53;;;;;;;31.86;44.26;95582.28;5112538;28;20431;-54
2022/09/09 08:29:18;;;;;;;0.67;0.67;;;;;;;31.99;45.37;95586.16;5112228;28;20425;-55
2022/09/09 08:31:48;;;;;;;0.90;0.90;;;;;;;31.99;44.54;95569.72;5111962;28;20434;-56
2022/09/09 08:34:20;;;;;;;1.03;0.90;;;;;;;32.52;45.26;95564.66;5112183;28;20431;-55
2022/09/09 08:36:50;;;;;;;0.60;0.57;;;;;;;32.57;43.70;95563.44;5112001;28;20438;-56
2022/09/09 08:39:20;;;;;;;0.50;0.50;;;;;;;32.56;43.27;95564.66;5111969;28;20471;-57
2022/09/09 08:42:11;;;;;;;0.60;0.60;;;;;;;33.14;42.61;95563.75;5111806;28;20960;-56
2022/09/09 08:44:57;;;;;;;0.83;0.83;;;;;;;32.82;44.45;95568.72;5112274;28;20437;-56
2022/09/09 08:47:36;;;;;;;2.10;1.83;;;;;;;31.77;45.54;95563.53;5112083;28;20442;-56
2022/09/09 08:50:19;;;;;;;1.13;0.87;;;;;;;31.97;47.37;95563.81;5111900;28;20425;-56
2022/09/09 08:52:55;;;;;;;0.53;0.53;;;;;;;32.98;42.78;95555.25;5111806;28;20434;-56
2022/09/09 08:55:28;;;;;;;0.83;0.83;;;;;;;33.25;40.38;95561.66;5111803;28;20453;-56
2022/09/09 08:58:00;;;;;;;0.70;0.70;;;;;;;32.26;42.33;95558.97;5111716;28;20545;-56
2022/09/09 09:00:38;;;;;;;1.03;1.03;;;;;;;32.41;41.75;95558.44;5111825;28;20580;-57
2022/09/09 09:03:17;;;;;;;0.70;0.70;;;;;;;32.66;40.31;95549.28;5111871;28;20945;-58
2022/09/09 09:05:52;;;;;;;0.40;0.40;;;;;;;32.74;40.06;95548.78;5112008;28;20800;-56
2022/09/09 09:08:28;;;;;;;0.47;0.43;;;;;;;33.02;40.82;95545.00;5112040;28;20438;-56
2022/09/09 09:11:00;;;;;;;0.70;0.70;;;;;;;33.11;40.22;95550.81;5112090;28;20427;-56
2022/09/09 09:13:36;;;;;;;0.60;0.40;;;;;;;33.93;39.23;95539.66;5111595;28;20434;-56
2022/09/09 09:16:20;;;;;;;1.13;1.13;;;;;;;34.02;39.73;95553.66;5111900;28;20462;-56
2022/09/09 09:18:50;;;;;;;0.60;0.60;;;;;;;33.71;40.26;95534.44;5111810;28;20478;-56
2022/09/09 09:21:27;;;;;;;1.27;0.87;;;;;;;32.48;43.19;95543.91;5111534;28;20435;-55
2022/09/09 09:23:59;;;;;;;1.53;1.43;;;;;;;32.84;45.15;95534.19;5111583;28;20414;-55
2022/09/09 09:26:33;;;;;;;0.80;0.70;;;;;;;32.75;44.56;95535.84;5111503;28;20444;-55
2022/09/09 09:29:09;;;;;;;0.77;0.77;;;;;;;33.29;42.44;95532.19;5111936;28;20432;-56
2022/09/09 09:31:37;;;;;;;0.73;0.40;;;;;;;34.19;41.00;95527.88;5111629;28;20427;-56
2022/09/09 09:34:06;;;;;;;0.77;0.77;;;;;;;35.03;39.40;95526.50;5111677;28;20424;-56
2022/09/09 09:36:41;;;;;;;0.70;0.50;;;;;;;34.39;40.05;95537.00;5111838;28;20893;-56
2022/09/09 09:39:09;;;;;;;2.10;2.00;;;;;;;32.53;45.13;95527.81;5111607;28;20483;-56
2022/09/09 09:42:00;;;;;;;0.60;0.60;;;;;;;31.05;49.05;95460.09;5111240;28;20512;-56
2022/09/09 09:44:37;;;;;;;0.83;0.83;;;;;;;31.68;49.51;95507.56;5111347;28;20488;-57
2022/09/09 09:47:10;;;;;;;0.60;0.60;;;;;;;31.03;50.73;95461.66;5111773;28;20555;-57
2022/09/09 09:49:39;;;;;;;0.70;0.43;;;;;;;31.88;49.53;95497.66;5112507;28;20428;-57
2022/09/09 09:52:22;;;;;;;0.90;0.80;;;;;;;31.34;50.79;95501.84;5115140;28;20446;-57
2022/09/09 09:54:52;;;;;;;0.53;0.50;;;;;;;31.24;53.29;95486.25;5115192;28;20908;-57
2022/09/09 09:57:26;;;;;;;0.60;0.60;;;;;;;31.31;53.93;95503.44;5115123;28;20542;-57
2022/09/09 10:00:06;;;;;;;0.40;0.40;;;;;;;31.53;52.75;95487.69;5115346;28;20878;-57
2022/09/09 10:02:40;;;;;;;0.50;0.40;;;;;;;31.66;51.17;95501.72;5115082;28;20946;-56
2022/09/09 10:05:16;;;;;;;0.50;0.30;;;;;;;31.67;50.60;95497.81;5115205;28;20429;-56
2022/09/09 10:07:47;;;;;;;0.40;0.40;;;;;;;32.22;49.83;95506.09;5115245;28;20459;-56
2022/09/09 10:10:21;;;;;;;0.50;0.50;;;;;;;31.65;51.36;95509.16;5114856;28;20433;-56
2022/09/09 10:13:01;;;;;;;3.90;2.43;;;;;;;31.34;53.67;95499.13;5114897;28;20920;-59
2022/09/09 10:15:43;;;;;;;0.60;0.60;;;;;;;31.30;54.16;95506.53;5115022;28;20427;-60
2022/09/09 10:18:27;;;;;;;0.80;0.60;;;;;;;31.48;52.35;95506.50;5114703;28;20457;-60
2022/09/09 10:21:05;;;;;;;0.40;0.40;;;;;;;31.89;50.39;95493.75;5114940;28;20840;-60
2022/09/09 10:24:09;;;;;;;1.70;1.23;;;;;;;31.40;51.89;95498.28;5114679;28;20431;-61
2022/09/09 10:26:47;;;;;;;1.27;0.47;;;;;;;32.16;50.75;95492.00;5114459;27;20441;-60
2022/09/09 10:29:34;;;;;;;0.40;0.30;;;;;;;32.45;53.16;95485.13;5114701;28;20418;-60
2022/09/09 10:32:14;;;;;;;0.60;0.60;;;;;;;33.17;48.39;95480.50;5114686;28;20548;-60
2022/09/09 10:34:56;;;;;;;0.50;0.40;;;;;;;34.26;43.85;95479.03;5114451;28;20418;-59
2022/09/09 10:37:38;;;;;;;0.60;0.50;;;;;;;33.81;43.10;95473.00;5114363;28;20441;-60
2022/09/09 10:40:24;;;;;;;0.60;0.43;;;;;;;33.42;44.67;95464.47;5114272;28;20937;-60
2022/09/09 10:42:58;;;;;;;0.57;0.47;;;;;;;33.38;44.43;95474.75;5114496;28;20521;-60
2022/09/09 10:45:34;;;;;;;0.87;0.80;;;;;;;34.07;43.18;95467.94;5114286;28;20428;-59
2022/09/09 10:48:27;;;;;;;0.70;0.37;;;;;;;34.55;41.97;95468.34;5114416;28;20443;-59
2022/09/09 10:51:03;;;;;;;0.80;0.53;;;;;;;35.38;40.99;95466.38;5114336;27;20427;-57
2022/09/09 10:53:48;;;;;;;0.60;0.53;;;;;;;34.79;39.01;95469.88;5114054;28;20433;-58
2022/09/09 10:56:21;;;;;;;0.40;0.40;;;;;;;35.10;40.36;95459.47;5113864;28;20474;-57
2022/09/09 10:58:53;;;;;;;0.97;0.97;;;;;;;35.66;37.93;95450.06;5113393;28;20467;-56
2022/09/09 11:01:24;;;;;;;0.70;0.60;;;;;;;36.16;36.04;95448.91;5113610;28;20442;-56
2022/09/09 11:03:58;;;;;;;1.53;0.50;;;;;;;35.90;36.90;95436.13;5113970;28;20445;-56
2022/09/09 11:06:33;;;;;;;0.50;0.43;;;;;;;36.87;39.01;95443.16;5114398;28;20673;-56
2022/09/09 11:09:05;;;;;;;0.57;0.57;;;;;;;35.95;37.72;95383.19;5113878;28;20680;-56
2022/09/09 11:11:40;;;;;;;0.43;0.40;;;;;;;35.74;37.03;95445.16;5113890;28;20187;-54
2022/09/09 11:14:16;;;;;;;0.60;0.30;;;;;;;36.46;35.39;95439.50;5113866;28;20652;-54
2022/09/09 11:16:51;;;;;;;1.17;1.17;;;;;;;36.23;37.97;95430.19;5114438;27;20199;-54
2022/09/09 11:19:27;;;;;;;0.50;0.40;;;;;;;35.91;38.30;95432.16;5113730;28;20210;-54
2022/09/09 11:21:58;;;;;;;0.43;0.43;;;;;;;36.09;36.21;95427.78;5114083;28;20189;-54
2022/09/09 11:24:32;;;;;;;0.50;0.50;;;;;;;36.68;36.85;95423.97;5113973;28;20191;-54
2022/09/09 11:27:09;;;;;;;0.63;0.63;;;;;;;36.43;35.62;95412.75;5113655;28;20192;-54
2022/09/09 11:30:07;;;;;;;0.60;0.50;;;;;;;36.99;35.30;95413.28;5113530;28;20194;-54
2022/09/09 11:33:09;;;;;;;0.88;0.68;;;;;;;37.07;34.10;95418.16;5113737;28;20202;-54
2022/09/09 11:35:55;;;;;;;1.23;1.13;;;;;;;37.03;34.12;95416.72;5113135;28;20203;-54
2022/09/09 11:38:27;;;;;;;0.50;0.40;;;;;;;37.44;33.67;95405.66;5113290;28;20196;-55
2022/09/09 11:41:00;;;;;;;0.50;0.50;;;;;;;37.35;34.00;95397.19;5113181;28;20225;-55
2022/09/09 11:43:34;;;;;;;1.02;0.60;;;;;;;37.39;33.60;95406.19;5113378;27;20613;-54
2022/09/09 11:46:04;;;;;;;0.77;0.77;;;;;;;37.42;33.32;95395.03;5112958;28;20195;-55
2022/09/09 11:48:37;;;;;;;0.40;0.32;;;;;;;37.89;32.82;95350.91;5112977;28;20254;-54
2022/09/09 11:51:08;;;;;;;0.63;0.63;;;;;;;37.59;33.45;95389.41;5113213;28;20227;-55
2022/09/09 11:53:52;;;;;;;0.47;0.47;;;;;;;37.82;33.23;95381.56;5112808;28;20287;-55
2022/09/09 11:56:29;;;;;;;0.40;0.30;;;;;;;38.80;33.04;95379.47;5112705;28;20234;-55